sensor_id;sensor_type;location;lat;lon;timestamp;P1;durP1;ratioP1;P2;durP2;ratioP2
4748;SDS011;2388;53.582;9.962;2022-08-01T00:01:02;9.30;;;8.30;;
4748;SDS011;2388;53.582;9.962;2022-08-01T00:03:27;9.50;;;8.70;;
4748;SDS011;2388;53.582;9.962;2022-08-01T00:05:53;8.83;;;8.10;;
4748;SDS011;2388;53.582;9.962;2022-08-01T00:08:18;8.93;;;8.10;;
4748;SDS011;2388;53.582;9.962;2022-08-01T00:10:44;9.83;;;8.63;;
4748;SDS011;2388;53.582;9.962;2022-08-01T00:13:09;7.87;;;7.23;;
4748;SDS011;2388;53.582;9.962;2022-08-01T00:15:35;8.70;;;8.00;;
4748;SDS011;2388;53.582;9.962;2022-08-01T00:18:00;8.40;;;7.70;;
4748;SDS011;2388;53.582;9.962;2022-08-01T00:20:26;9.87;;;8.13;;
4748;SDS011;2388;53.582;9.962;2022-08-01T00:22:52;9.20;;;8.40;;
4748;SDS011;2388;53.582;9.962;2022-08-01T00:25:17;7.90;;;7.30;;
4748;SDS011;2388;53.582;9.962;2022-08-01T00:27:43;15.23;;;8.67;;
4748;SDS011;2388;53.582;9.962;2022-08-01T00:30:08;9.10;;;8.30;;
4748;SDS011;2388;53.582;9.962;2022-08-01T00:32:34;9.00;;;8.10;;
4748;SDS011;2388;53.582;9.962;2022-08-01T00:35:00;9.40;;;8.40;;
4748;SDS011;2388;53.582;9.962;2022-08-01T00:37:25;9.57;;;8.87;;
4748;SDS011;2388;53.582;9.962;2022-08-01T00:39:51;15.13;;;9.30;;
4748;SDS011;2388;53.582;9.962;2022-08-01T00:42:16;10.07;;;9.20;;
4748;SDS011;2388;53.582;9.962;2022-08-01T00:44:42;10.47;;;9.37;;
4748;SDS011;2388;53.582;9.962;2022-08-01T00:47:07;10.07;;;9.07;;
4748;SDS011;2388;53.582;9.962;2022-08-01T00:49:33;12.23;;;8.73;;
4748;SDS011;2388;53.582;9.962;2022-08-01T00:51:58;8.90;;;8.00;;
4748;SDS011;2388;53.582;9.962;2022-08-01T00:54:25;9.20;;;8.10;;
4748;SDS011;2388;53.582;9.962;2022-08-01T00:56:52;9.30;;;8.40;;
4748;SDS011;2388;53.582;9.962;2022-08-01T00:59:18;8.50;;;7.80;;
4748;SDS011;2388;53.582;9.962;2022-08-01T01:01:46;9.07;;;8.13;;
4748;SDS011;2388;53.582;9.962;2022-08-01T01:04:12;7.60;;;6.73;;
4748;SDS011;2388;53.582;9.962;2022-08-01T01:06:48;6.90;;;6.37;;
4748;SDS011;2388;53.582;9.962;2022-08-01T01:14:56;7.27;;;6.57;;
4748;SDS011;2388;53.582;9.962;2022-08-01T01:17:55;7.20;;;6.60;;
4748;SDS011;2388;53.582;9.962;2022-08-01T01:20:30;7.40;;;6.70;;
4748;SDS011;2388;53.582;9.962;2022-08-01T01:28:35;8.63;;;7.93;;
4748;SDS011;2388;53.582;9.962;2022-08-01T01:31:20;8.70;;;7.73;;
4748;SDS011;2388;53.582;9.962;2022-08-01T01:33:48;9.00;;;6.90;;
4748;SDS011;2388;53.582;9.962;2022-08-01T01:36:15;9.07;;;8.17;;
4748;SDS011;2388;53.582;9.962;2022-08-01T01:38:44;8.20;;;7.40;;
4748;SDS011;2388;53.582;9.962;2022-08-01T01:41:11;9.17;;;8.20;;
4748;SDS011;2388;53.582;9.962;2022-08-01T01:43:37;8.97;;;8.07;;
4748;SDS011;2388;53.582;9.962;2022-08-01T01:46:04;8.47;;;7.77;;
4748;SDS011;2388;53.582;9.962;2022-08-01T01:48:33;9.43;;;8.50;;
4748;SDS011;2388;53.582;9.962;2022-08-01T01:51:00;11.03;;;8.37;;
4748;SDS011;2388;53.582;9.962;2022-08-01T01:53:26;8.23;;;7.50;;
4748;SDS011;2388;53.582;9.962;2022-08-01T01:55:55;9.10;;;8.20;;
4748;SDS011;2388;53.582;9.962;2022-08-01T01:58:22;13.10;;;9.27;;
4748;SDS011;2388;53.582;9.962;2022-08-01T02:00:49;9.77;;;8.77;;
4748;SDS011;2388;53.582;9.962;2022-08-01T02:03:16;10.97;;;8.20;;
4748;SDS011;2388;53.582;9.962;2022-08-01T02:05:43;10.97;;;8.80;;
4748;SDS011;2388;53.582;9.962;2022-08-01T02:08:09;8.83;;;7.93;;
4748;SDS011;2388;53.582;9.962;2022-08-01T02:10:36;7.97;;;7.20;;
4748;SDS011;2388;53.582;9.962;2022-08-01T02:13:04;9.87;;;8.33;;
4748;SDS011;2388;53.582;9.962;2022-08-01T02:15:31;7.60;;;6.80;;
4748;SDS011;2388;53.582;9.962;2022-08-01T02:17:58;12.83;;;6.87;;
4748;SDS011;2388;53.582;9.962;2022-08-01T02:20:26;8.13;;;7.43;;
4748;SDS011;2388;53.582;9.962;2022-08-01T02:23:03;10.73;;;7.43;;
4748;SDS011;2388;53.582;9.962;2022-08-01T02:25:42;10.13;;;7.63;;
4748;SDS011;2388;53.582;9.962;2022-08-01T02:28:32;7.90;;;7.10;;
4748;SDS011;2388;53.582;9.962;2022-08-01T02:31:04;9.90;;;7.10;;
4748;SDS011;2388;53.582;9.962;2022-08-01T02:33:39;6.83;;;6.23;;
4748;SDS011;2388;53.582;9.962;2022-08-01T02:36:07;8.07;;;7.27;;
4748;SDS011;2388;53.582;9.962;2022-08-01T02:38:35;8.80;;;7.50;;
4748;SDS011;2388;53.582;9.962;2022-08-01T02:41:06;9.50;;;6.90;;
4748;SDS011;2388;53.582;9.962;2022-08-01T02:43:34;7.30;;;6.67;;
4748;SDS011;2388;53.582;9.962;2022-08-01T02:46:04;7.20;;;6.00;;
4748;SDS011;2388;53.582;9.962;2022-08-01T02:48:33;6.40;;;5.70;;
4748;SDS011;2388;53.582;9.962;2022-08-01T02:51:01;6.03;;;5.60;;
4748;SDS011;2388;53.582;9.962;2022-08-01T02:53:29;6.40;;;5.80;;
4748;SDS011;2388;53.582;9.962;2022-08-01T02:55:57;10.40;;;6.30;;
4748;SDS011;2388;53.582;9.962;2022-08-01T02:58:24;6.97;;;5.87;;
4748;SDS011;2388;53.582;9.962;2022-08-01T03:00:51;7.57;;;6.73;;
4748;SDS011;2388;53.582;9.962;2022-08-01T03:03:17;6.53;;;5.87;;
4748;SDS011;2388;53.582;9.962;2022-08-01T03:05:43;6.70;;;6.10;;
4748;SDS011;2388;53.582;9.962;2022-08-01T03:08:10;6.93;;;6.30;;
4748;SDS011;2388;53.582;9.962;2022-08-01T03:10:38;6.87;;;6.23;;
4748;SDS011;2388;53.582;9.962;2022-08-01T03:13:07;7.53;;;6.63;;
4748;SDS011;2388;53.582;9.962;2022-08-01T03:15:36;7.50;;;6.77;;
4748;SDS011;2388;53.582;9.962;2022-08-01T03:18:04;6.97;;;6.13;;
4748;SDS011;2388;53.582;9.962;2022-08-01T03:20:33;6.80;;;6.10;;
4748;SDS011;2388;53.582;9.962;2022-08-01T03:22:59;7.30;;;5.80;;
4748;SDS011;2388;53.582;9.962;2022-08-01T03:25:29;6.80;;;6.20;;
4748;SDS011;2388;53.582;9.962;2022-08-01T03:27:56;7.57;;;5.63;;
4748;SDS011;2388;53.582;9.962;2022-08-01T03:30:26;6.93;;;5.80;;
4748;SDS011;2388;53.582;9.962;2022-08-01T03:32:52;7.33;;;6.67;;
4748;SDS011;2388;53.582;9.962;2022-08-01T03:35:18;7.00;;;6.40;;
4748;SDS011;2388;53.582;9.962;2022-08-01T03:37:50;6.30;;;5.80;;
4748;SDS011;2388;53.582;9.962;2022-08-01T03:40:23;6.00;;;5.47;;
4748;SDS011;2388;53.582;9.962;2022-08-01T03:42:53;7.07;;;6.37;;
4748;SDS011;2388;53.582;9.962;2022-08-01T03:45:25;7.17;;;6.47;;
4748;SDS011;2388;53.582;9.962;2022-08-01T03:47:53;9.30;;;6.30;;
4748;SDS011;2388;53.582;9.962;2022-08-01T03:50:24;7.13;;;5.50;;
4748;SDS011;2388;53.582;9.962;2022-08-01T03:52:50;6.70;;;5.67;;
4748;SDS011;2388;53.582;9.962;2022-08-01T03:55:18;6.83;;;5.60;;
4748;SDS011;2388;53.582;9.962;2022-08-01T03:57:45;4.80;;;4.40;;
4748;SDS011;2388;53.582;9.962;2022-08-01T04:00:12;4.30;;;4.10;;
4748;SDS011;2388;53.582;9.962;2022-08-01T04:02:38;4.40;;;4.10;;
4748;SDS011;2388;53.582;9.962;2022-08-01T04:05:04;4.80;;;4.50;;
4748;SDS011;2388;53.582;9.962;2022-08-01T04:07:30;4.80;;;4.23;;
4748;SDS011;2388;53.582;9.962;2022-08-01T04:09:57;4.10;;;3.87;;
4748;SDS011;2388;53.582;9.962;2022-08-01T04:12:23;4.53;;;4.23;;
4748;SDS011;2388;53.582;9.962;2022-08-01T04:14:49;5.30;;;4.40;;
4748;SDS011;2388;53.582;9.962;2022-08-01T04:17:15;5.00;;;4.50;;
4748;SDS011;2388;53.582;9.962;2022-08-01T04:19:41;6.13;;;4.77;;
4748;SDS011;2388;53.582;9.962;2022-08-01T04:22:08;5.23;;;4.83;;
4748;SDS011;2388;53.582;9.962;2022-08-01T04:24:35;8.60;;;4.57;;
4748;SDS011;2388;53.582;9.962;2022-08-01T04:27:01;4.77;;;4.30;;
4748;SDS011;2388;53.582;9.962;2022-08-01T04:29:33;4.67;;;4.00;;
4748;SDS011;2388;53.582;9.962;2022-08-01T04:32:00;4.50;;;4.27;;
4748;SDS011;2388;53.582;9.962;2022-08-01T04:34:27;4.00;;;3.80;;
4748;SDS011;2388;53.582;9.962;2022-08-01T04:36:55;4.03;;;3.60;;
4748;SDS011;2388;53.582;9.962;2022-08-01T04:39:23;5.70;;;3.90;;
4748;SDS011;2388;53.582;9.962;2022-08-01T04:41:55;3.80;;;3.40;;
4748;SDS011;2388;53.582;9.962;2022-08-01T04:44:23;3.70;;;3.50;;
4748;SDS011;2388;53.582;9.962;2022-08-01T04:46:50;5.20;;;2.80;;
4748;SDS011;2388;53.582;9.962;2022-08-01T04:49:19;2.90;;;2.40;;
4748;SDS011;2388;53.582;9.962;2022-08-01T04:51:49;2.97;;;2.63;;
4748;SDS011;2388;53.582;9.962;2022-08-01T04:54:15;3.20;;;2.60;;
4748;SDS011;2388;53.582;9.962;2022-08-01T04:56:41;2.20;;;2.10;;
4748;SDS011;2388;53.582;9.962;2022-08-01T04:59:07;2.60;;;2.50;;
4748;SDS011;2388;53.582;9.962;2022-08-01T05:01:52;2.40;;;2.20;;
4748;SDS011;2388;53.582;9.962;2022-08-01T05:04:18;4.73;;;1.83;;
4748;SDS011;2388;53.582;9.962;2022-08-01T05:06:43;3.77;;;2.00;;
4748;SDS011;2388;53.582;9.962;2022-08-01T05:09:09;2.90;;;1.67;;
4748;SDS011;2388;53.582;9.962;2022-08-01T05:11:34;1.60;;;1.50;;
4748;SDS011;2388;53.582;9.962;2022-08-01T05:14:00;2.30;;;1.90;;
4748;SDS011;2388;53.582;9.962;2022-08-01T05:16:25;2.70;;;1.47;;
4748;SDS011;2388;53.582;9.962;2022-08-01T05:18:51;2.43;;;1.77;;
4748;SDS011;2388;53.582;9.962;2022-08-01T05:21:17;2.20;;;1.33;;
4748;SDS011;2388;53.582;9.962;2022-08-01T05:23:42;3.53;;;1.40;;
4748;SDS011;2388;53.582;9.962;2022-08-01T05:26:08;1.90;;;1.80;;
4748;SDS011;2388;53.582;9.962;2022-08-01T05:28:33;1.57;;;1.47;;
4748;SDS011;2388;53.582;9.962;2022-08-01T05:30:59;2.63;;;1.60;;
4748;SDS011;2388;53.582;9.962;2022-08-01T05:33:24;3.10;;;2.50;;
4748;SDS011;2388;53.582;9.962;2022-08-01T05:35:50;2.50;;;2.10;;
4748;SDS011;2388;53.582;9.962;2022-08-01T05:38:15;3.77;;;1.83;;
4748;SDS011;2388;53.582;9.962;2022-08-01T05:40:41;2.33;;;1.60;;
4748;SDS011;2388;53.582;9.962;2022-08-01T05:43:06;3.40;;;2.93;;
4748;SDS011;2388;53.582;9.962;2022-08-01T05:45:33;3.53;;;3.23;;
4748;SDS011;2388;53.582;9.962;2022-08-01T05:47:58;4.00;;;3.80;;
4748;SDS011;2388;53.582;9.962;2022-08-01T05:50:24;4.20;;;3.90;;
4748;SDS011;2388;53.582;9.962;2022-08-01T05:52:49;4.03;;;3.50;;
4748;SDS011;2388;53.582;9.962;2022-08-01T05:55:15;4.17;;;3.60;;
4748;SDS011;2388;53.582;9.962;2022-08-01T05:57:40;3.73;;;3.43;;
4748;SDS011;2388;53.582;9.962;2022-08-01T06:00:06;6.00;;;3.60;;
4748;SDS011;2388;53.582;9.962;2022-08-01T06:02:32;5.20;;;4.70;;
4748;SDS011;2388;53.582;9.962;2022-08-01T06:04:57;5.73;;;5.20;;
4748;SDS011;2388;53.582;9.962;2022-08-01T06:07:23;6.53;;;5.90;;
4748;SDS011;2388;53.582;9.962;2022-08-01T06:09:49;9.27;;;7.23;;
4748;SDS011;2388;53.582;9.962;2022-08-01T06:12:14;7.53;;;6.43;;
4748;SDS011;2388;53.582;9.962;2022-08-01T06:14:40;8.70;;;6.20;;
4748;SDS011;2388;53.582;9.962;2022-08-01T06:17:05;9.57;;;6.43;;
4748;SDS011;2388;53.582;9.962;2022-08-01T06:19:30;6.40;;;6.00;;
4748;SDS011;2388;53.582;9.962;2022-08-01T06:21:56;6.40;;;5.50;;
4748;SDS011;2388;53.582;9.962;2022-08-01T06:24:21;13.20;;;6.30;;
4748;SDS011;2388;53.582;9.962;2022-08-01T06:26:48;7.30;;;5.97;;
4748;SDS011;2388;53.582;9.962;2022-08-01T06:29:14;7.27;;;6.57;;
4748;SDS011;2388;53.582;9.962;2022-08-01T06:31:40;9.93;;;5.40;;
4748;SDS011;2388;53.582;9.962;2022-08-01T06:34:05;7.77;;;5.40;;
4748;SDS011;2388;53.582;9.962;2022-08-01T06:36:31;22.20;;;14.50;;
4748;SDS011;2388;53.582;9.962;2022-08-01T06:38:56;34.83;;;28.33;;
4748;SDS011;2388;53.582;9.962;2022-08-01T06:41:21;15.10;;;12.60;;
4748;SDS011;2388;53.582;9.962;2022-08-01T06:43:47;9.47;;;8.50;;
4748;SDS011;2388;53.582;9.962;2022-08-01T06:46:13;14.27;;;7.90;;
4748;SDS011;2388;53.582;9.962;2022-08-01T06:48:38;7.23;;;6.53;;
4748;SDS011;2388;53.582;9.962;2022-08-01T06:51:04;10.20;;;6.83;;
4748;SDS011;2388;53.582;9.962;2022-08-01T06:53:33;9.70;;;6.13;;
4748;SDS011;2388;53.582;9.962;2022-08-01T06:55:59;13.77;;;5.07;;
4748;SDS011;2388;53.582;9.962;2022-08-01T06:58:25;9.43;;;5.13;;
4748;SDS011;2388;53.582;9.962;2022-08-01T07:00:51;8.33;;;5.50;;
4748;SDS011;2388;53.582;9.962;2022-08-01T07:03:16;8.47;;;5.00;;
4748;SDS011;2388;53.582;9.962;2022-08-01T07:05:42;12.80;;;5.27;;
4748;SDS011;2388;53.582;9.962;2022-08-01T07:08:07;7.60;;;5.00;;
4748;SDS011;2388;53.582;9.962;2022-08-01T07:10:33;7.77;;;4.70;;
4748;SDS011;2388;53.582;9.962;2022-08-01T07:12:58;8.73;;;5.07;;
4748;SDS011;2388;53.582;9.962;2022-08-01T07:15:24;18.30;;;5.47;;
4748;SDS011;2388;53.582;9.962;2022-08-01T07:17:51;5.70;;;4.43;;
4748;SDS011;2388;53.582;9.962;2022-08-01T07:20:17;7.00;;;5.60;;
4748;SDS011;2388;53.582;9.962;2022-08-01T07:22:43;10.00;;;5.30;;
4748;SDS011;2388;53.582;9.962;2022-08-01T07:25:08;8.63;;;4.90;;
4748;SDS011;2388;53.582;9.962;2022-08-01T07:27:34;14.77;;;6.23;;
4748;SDS011;2388;53.582;9.962;2022-08-01T07:30:00;10.10;;;5.60;;
4748;SDS011;2388;53.582;9.962;2022-08-01T07:32:26;12.20;;;6.40;;
4748;SDS011;2388;53.582;9.962;2022-08-01T07:34:51;19.07;;;7.07;;
4748;SDS011;2388;53.582;9.962;2022-08-01T07:37:17;14.73;;;6.67;;
4748;SDS011;2388;53.582;9.962;2022-08-01T07:39:43;13.23;;;6.40;;
4748;SDS011;2388;53.582;9.962;2022-08-01T07:42:08;12.30;;;6.13;;
4748;SDS011;2388;53.582;9.962;2022-08-01T07:44:34;12.53;;;5.57;;
4748;SDS011;2388;53.582;9.962;2022-08-01T07:47:00;9.40;;;5.90;;
4748;SDS011;2388;53.582;9.962;2022-08-01T07:49:25;17.90;;;5.13;;
4748;SDS011;2388;53.582;9.962;2022-08-01T07:51:51;11.73;;;4.33;;
4748;SDS011;2388;53.582;9.962;2022-08-01T07:54:17;18.50;;;4.10;;
4748;SDS011;2388;53.582;9.962;2022-08-01T07:56:42;6.60;;;2.90;;
4748;SDS011;2388;53.582;9.962;2022-08-01T07:59:08;8.20;;;3.50;;
4748;SDS011;2388;53.582;9.962;2022-08-01T08:01:33;7.10;;;3.30;;
4748;SDS011;2388;53.582;9.962;2022-08-01T08:03:59;16.43;;;2.70;;
4748;SDS011;2388;53.582;9.962;2022-08-01T08:06:24;11.10;;;3.27;;
4748;SDS011;2388;53.582;9.962;2022-08-01T08:08:50;10.67;;;3.17;;
4748;SDS011;2388;53.582;9.962;2022-08-01T08:11:15;12.20;;;2.63;;
4748;SDS011;2388;53.582;9.962;2022-08-01T08:13:41;5.27;;;2.00;;
4748;SDS011;2388;53.582;9.962;2022-08-01T08:16:06;3.87;;;1.90;;
4748;SDS011;2388;53.582;9.962;2022-08-01T08:18:32;3.30;;;1.37;;
4748;SDS011;2388;53.582;9.962;2022-08-01T08:20:57;7.77;;;1.90;;
4748;SDS011;2388;53.582;9.962;2022-08-01T08:23:23;7.40;;;1.90;;
4748;SDS011;2388;53.582;9.962;2022-08-01T08:26:07;9.10;;;3.20;;
4748;SDS011;2388;53.582;9.962;2022-08-01T08:28:32;8.27;;;2.73;;
4748;SDS011;2388;53.582;9.962;2022-08-01T08:30:58;11.67;;;2.43;;
4748;SDS011;2388;53.582;9.962;2022-08-01T08:33:23;6.10;;;2.57;;
4748;SDS011;2388;53.582;9.962;2022-08-01T08:35:49;4.60;;;2.30;;
4748;SDS011;2388;53.582;9.962;2022-08-01T08:38:14;9.20;;;2.90;;
4748;SDS011;2388;53.582;9.962;2022-08-01T08:40:40;6.03;;;2.37;;
4748;SDS011;2388;53.582;9.962;2022-08-01T08:43:05;3.60;;;1.80;;
4748;SDS011;2388;53.582;9.962;2022-08-01T08:45:32;12.13;;;3.10;;
4748;SDS011;2388;53.582;9.962;2022-08-01T08:47:58;9.93;;;2.13;;
4748;SDS011;2388;53.582;9.962;2022-08-01T08:50:25;7.43;;;2.30;;
4748;SDS011;2388;53.582;9.962;2022-08-01T08:52:52;9.30;;;3.03;;
4748;SDS011;2388;53.582;9.962;2022-08-01T08:55:19;6.30;;;2.00;;
4748;SDS011;2388;53.582;9.962;2022-08-01T08:57:46;8.27;;;2.20;;
4748;SDS011;2388;53.582;9.962;2022-08-01T09:00:12;6.30;;;2.47;;
4748;SDS011;2388;53.582;9.962;2022-08-01T09:02:42;7.83;;;2.00;;
4748;SDS011;2388;53.582;9.962;2022-08-01T09:05:09;16.07;;;1.87;;
4748;SDS011;2388;53.582;9.962;2022-08-01T09:07:35;7.03;;;1.73;;
4748;SDS011;2388;53.582;9.962;2022-08-01T09:10:01;13.17;;;1.87;;
4748;SDS011;2388;53.582;9.962;2022-08-01T09:12:28;4.90;;;1.83;;
4748;SDS011;2388;53.582;9.962;2022-08-01T09:14:53;3.67;;;1.70;;
4748;SDS011;2388;53.582;9.962;2022-08-01T09:17:19;5.10;;;1.97;;
4748;SDS011;2388;53.582;9.962;2022-08-01T09:19:46;7.17;;;2.30;;
4748;SDS011;2388;53.582;9.962;2022-08-01T09:22:19;5.73;;;1.67;;
4748;SDS011;2388;53.582;9.962;2022-08-01T09:24:57;6.03;;;2.00;;
4748;SDS011;2388;53.582;9.962;2022-08-01T09:27:24;14.80;;;5.87;;
4748;SDS011;2388;53.582;9.962;2022-08-01T09:29:51;16.33;;;7.57;;
4748;SDS011;2388;53.582;9.962;2022-08-01T09:32:18;14.17;;;4.30;;
4748;SDS011;2388;53.582;9.962;2022-08-01T09:34:44;10.67;;;2.63;;
4748;SDS011;2388;53.582;9.962;2022-08-01T09:37:11;10.77;;;2.47;;
4748;SDS011;2388;53.582;9.962;2022-08-01T09:39:37;10.40;;;2.67;;
4748;SDS011;2388;53.582;9.962;2022-08-01T09:42:24;14.03;;;2.23;;
4748;SDS011;2388;53.582;9.962;2022-08-01T09:44:51;6.47;;;1.93;;
4748;SDS011;2388;53.582;9.962;2022-08-01T09:47:18;15.47;;;2.07;;
4748;SDS011;2388;53.582;9.962;2022-08-01T09:49:46;6.80;;;2.63;;
4748;SDS011;2388;53.582;9.962;2022-08-01T09:52:20;8.53;;;2.00;;
4748;SDS011;2388;53.582;9.962;2022-08-01T09:54:54;11.37;;;2.33;;
4748;SDS011;2388;53.582;9.962;2022-08-01T09:57:27;7.30;;;2.50;;
4748;SDS011;2388;53.582;9.962;2022-08-01T09:59:58;12.87;;;2.73;;
4748;SDS011;2388;53.582;9.962;2022-08-01T10:02:42;8.93;;;2.87;;
4748;SDS011;2388;53.582;9.962;2022-08-01T10:05:09;5.60;;;2.50;;
4748;SDS011;2388;53.582;9.962;2022-08-01T10:07:57;6.47;;;2.50;;
4748;SDS011;2388;53.582;9.962;2022-08-01T10:10:23;9.70;;;2.83;;
4748;SDS011;2388;53.582;9.962;2022-08-01T10:12:48;10.60;;;3.33;;
4748;SDS011;2388;53.582;9.962;2022-08-01T10:15:16;12.47;;;3.67;;
4748;SDS011;2388;53.582;9.962;2022-08-01T10:17:46;19.07;;;3.47;;
4748;SDS011;2388;53.582;9.962;2022-08-01T10:20:18;5.97;;;2.27;;
4748;SDS011;2388;53.582;9.962;2022-08-01T10:22:45;11.10;;;2.33;;
4748;SDS011;2388;53.582;9.962;2022-08-01T10:25:11;7.03;;;2.57;;
4748;SDS011;2388;53.582;9.962;2022-08-01T10:27:41;8.23;;;4.10;;
4748;SDS011;2388;53.582;9.962;2022-08-01T10:30:11;8.03;;;2.50;;
4748;SDS011;2388;53.582;9.962;2022-08-01T10:32:37;12.80;;;2.97;;
4748;SDS011;2388;53.582;9.962;2022-08-01T10:35:04;53.43;;;33.73;;
4748;SDS011;2388;53.582;9.962;2022-08-01T10:37:31;12.77;;;5.93;;
4748;SDS011;2388;53.582;9.962;2022-08-01T10:40:00;8.60;;;3.20;;
4748;SDS011;2388;53.582;9.962;2022-08-01T10:42:26;9.70;;;4.60;;
4748;SDS011;2388;53.582;9.962;2022-08-01T10:44:52;6.60;;;3.07;;
4748;SDS011;2388;53.582;9.962;2022-08-01T10:47:35;10.57;;;2.47;;
4748;SDS011;2388;53.582;9.962;2022-08-01T10:53:20;4.83;;;1.53;;
4748;SDS011;2388;53.582;9.962;2022-08-01T10:58:22;16.37;;;4.30;;
4748;SDS011;2388;53.582;9.962;2022-08-01T11:00:56;6.30;;;2.33;;
4748;SDS011;2388;53.582;9.962;2022-08-01T11:03:42;8.80;;;2.60;;
4748;SDS011;2388;53.582;9.962;2022-08-01T11:06:20;9.80;;;2.40;;
4748;SDS011;2388;53.582;9.962;2022-08-01T11:08:51;18.97;;;2.93;;
4748;SDS011;2388;53.582;9.962;2022-08-01T11:11:18;7.20;;;2.20;;
4748;SDS011;2388;53.582;9.962;2022-08-01T11:16:29;18.67;;;11.83;;
4748;SDS011;2388;53.582;9.962;2022-08-01T11:18:56;4.43;;;2.80;;
4748;SDS011;2388;53.582;9.962;2022-08-01T11:21:40;8.97;;;2.10;;
4748;SDS011;2388;53.582;9.962;2022-08-01T11:24:41;5.73;;;1.40;;
4748;SDS011;2388;53.582;9.962;2022-08-01T11:27:18;5.27;;;1.23;;
4748;SDS011;2388;53.582;9.962;2022-08-01T11:30:13;8.43;;;2.30;;
4748;SDS011;2388;53.582;9.962;2022-08-01T11:32:55;7.80;;;1.30;;
4748;SDS011;2388;53.582;9.962;2022-08-01T11:35:22;9.23;;;2.10;;
4748;SDS011;2388;53.582;9.962;2022-08-01T11:37:50;8.70;;;1.90;;
4748;SDS011;2388;53.582;9.962;2022-08-01T11:40:24;8.77;;;1.70;;
4748;SDS011;2388;53.582;9.962;2022-08-01T11:42:50;9.00;;;1.40;;
4748;SDS011;2388;53.582;9.962;2022-08-01T11:45:53;6.37;;;1.60;;
4748;SDS011;2388;53.582;9.962;2022-08-01T11:48:23;9.37;;;2.10;;
4748;SDS011;2388;53.582;9.962;2022-08-01T11:50:50;6.03;;;1.93;;
4748;SDS011;2388;53.582;9.962;2022-08-01T11:53:17;8.03;;;2.30;;
4748;SDS011;2388;53.582;9.962;2022-08-01T11:55:51;4.30;;;1.27;;
4748;SDS011;2388;53.582;9.962;2022-08-01T11:58:21;11.43;;;2.17;;
4748;SDS011;2388;53.582;9.962;2022-08-01T12:00:55;23.70;;;3.67;;
4748;SDS011;2388;53.582;9.962;2022-08-01T12:03:25;8.53;;;1.77;;
4748;SDS011;2388;53.582;9.962;2022-08-01T12:05:53;5.33;;;1.73;;
4748;SDS011;2388;53.582;9.962;2022-08-01T12:08:26;5.47;;;1.50;;
4748;SDS011;2388;53.582;9.962;2022-08-01T12:10:57;4.80;;;1.47;;
4748;SDS011;2388;53.582;9.962;2022-08-01T12:13:24;9.27;;;1.47;;
4748;SDS011;2388;53.582;9.962;2022-08-01T12:15:50;7.57;;;1.13;;
4748;SDS011;2388;53.582;9.962;2022-08-01T12:18:15;6.17;;;1.17;;
4748;SDS011;2388;53.582;9.962;2022-08-01T12:20:42;8.37;;;1.27;;
4748;SDS011;2388;53.582;9.962;2022-08-01T12:23:11;4.10;;;1.10;;
4748;SDS011;2388;53.582;9.962;2022-08-01T12:25:39;3.63;;;1.47;;
4748;SDS011;2388;53.582;9.962;2022-08-01T12:28:06;4.70;;;1.30;;
4748;SDS011;2388;53.582;9.962;2022-08-01T12:30:33;10.83;;;1.20;;
4748;SDS011;2388;53.582;9.962;2022-08-01T12:33:00;12.57;;;1.50;;
4748;SDS011;2388;53.582;9.962;2022-08-01T12:35:27;5.00;;;1.40;;
4748;SDS011;2388;53.582;9.962;2022-08-01T12:37:55;10.33;;;1.60;;
4748;SDS011;2388;53.582;9.962;2022-08-01T12:40:32;5.70;;;1.40;;
4748;SDS011;2388;53.582;9.962;2022-08-01T12:42:59;9.27;;;1.70;;
4748;SDS011;2388;53.582;9.962;2022-08-01T12:45:28;4.67;;;1.63;;
4748;SDS011;2388;53.582;9.962;2022-08-01T12:48:07;7.17;;;1.67;;
4748;SDS011;2388;53.582;9.962;2022-08-01T12:50:36;5.83;;;1.40;;
4748;SDS011;2388;53.582;9.962;2022-08-01T12:53:03;8.23;;;1.27;;
4748;SDS011;2388;53.582;9.962;2022-08-01T12:55:29;3.00;;;1.03;;
4748;SDS011;2388;53.582;9.962;2022-08-01T13:00:33;5.80;;;1.30;;
4748;SDS011;2388;53.582;9.962;2022-08-01T13:03:02;3.70;;;1.30;;
4748;SDS011;2388;53.582;9.962;2022-08-01T13:08:11;4.20;;;1.57;;
4748;SDS011;2388;53.582;9.962;2022-08-01T13:10:38;5.80;;;1.27;;
4748;SDS011;2388;53.582;9.962;2022-08-01T13:13:04;5.10;;;0.97;;
4748;SDS011;2388;53.582;9.962;2022-08-01T13:15:32;5.60;;;1.17;;
4748;SDS011;2388;53.582;9.962;2022-08-01T13:18:00;6.90;;;1.33;;
4748;SDS011;2388;53.582;9.962;2022-08-01T13:20:46;7.20;;;1.73;;
4748;SDS011;2388;53.582;9.962;2022-08-01T13:23:12;9.83;;;1.43;;
4748;SDS011;2388;53.582;9.962;2022-08-01T13:25:46;3.87;;;1.57;;
4748;SDS011;2388;53.582;9.962;2022-08-01T13:28:23;6.50;;;1.40;;
4748;SDS011;2388;53.582;9.962;2022-08-01T13:30:57;5.30;;;1.20;;
4748;SDS011;2388;53.582;9.962;2022-08-01T13:33:46;8.33;;;1.10;;
4748;SDS011;2388;53.582;9.962;2022-08-01T13:36:13;6.37;;;1.50;;
4748;SDS011;2388;53.582;9.962;2022-08-01T13:38:40;5.10;;;1.27;;
4748;SDS011;2388;53.582;9.962;2022-08-01T13:41:25;3.77;;;1.53;;
4748;SDS011;2388;53.582;9.962;2022-08-01T13:43:51;13.10;;;1.90;;
4748;SDS011;2388;53.582;9.962;2022-08-01T13:46:17;5.73;;;1.33;;
4748;SDS011;2388;53.582;9.962;2022-08-01T13:48:43;2.63;;;1.13;;
4748;SDS011;2388;53.582;9.962;2022-08-01T13:51:08;6.77;;;1.60;;
4748;SDS011;2388;53.582;9.962;2022-08-01T13:53:34;10.17;;;1.90;;
4748;SDS011;2388;53.582;9.962;2022-08-01T13:56:00;5.03;;;1.67;;
4748;SDS011;2388;53.582;9.962;2022-08-01T13:58:26;6.63;;;3.20;;
4748;SDS011;2388;53.582;9.962;2022-08-01T14:00:53;7.63;;;1.90;;
4748;SDS011;2388;53.582;9.962;2022-08-01T14:03:18;5.73;;;2.17;;
4748;SDS011;2388;53.582;9.962;2022-08-01T14:05:44;6.37;;;3.00;;
4748;SDS011;2388;53.582;9.962;2022-08-01T14:08:10;14.00;;;10.93;;
4748;SDS011;2388;53.582;9.962;2022-08-01T14:10:36;4.53;;;2.10;;
4748;SDS011;2388;53.582;9.962;2022-08-01T14:13:01;7.57;;;2.03;;
4748;SDS011;2388;53.582;9.962;2022-08-01T14:15:27;9.37;;;2.87;;
4748;SDS011;2388;53.582;9.962;2022-08-01T14:17:52;3.87;;;1.53;;
4748;SDS011;2388;53.582;9.962;2022-08-01T14:20:18;3.30;;;1.63;;
4748;SDS011;2388;53.582;9.962;2022-08-01T14:22:45;7.53;;;1.77;;
4748;SDS011;2388;53.582;9.962;2022-08-01T14:25:11;5.23;;;1.30;;
4748;SDS011;2388;53.582;9.962;2022-08-01T14:27:37;4.13;;;1.97;;
4748;SDS011;2388;53.582;9.962;2022-08-01T14:30:04;5.00;;;1.47;;
4748;SDS011;2388;53.582;9.962;2022-08-01T14:32:30;2.70;;;1.07;;
4748;SDS011;2388;53.582;9.962;2022-08-01T14:34:58;5.03;;;1.60;;
4748;SDS011;2388;53.582;9.962;2022-08-01T14:37:24;3.00;;;1.40;;
4748;SDS011;2388;53.582;9.962;2022-08-01T14:39:49;4.40;;;1.70;;
4748;SDS011;2388;53.582;9.962;2022-08-01T14:42:15;8.43;;;1.50;;
4748;SDS011;2388;53.582;9.962;2022-08-01T14:44:40;4.93;;;1.37;;
4748;SDS011;2388;53.582;9.962;2022-08-01T14:47:06;7.57;;;1.93;;
4748;SDS011;2388;53.582;9.962;2022-08-01T14:49:31;6.53;;;1.50;;
4748;SDS011;2388;53.582;9.962;2022-08-01T14:51:57;9.67;;;1.60;;
4748;SDS011;2388;53.582;9.962;2022-08-01T14:54:22;4.57;;;1.70;;
4748;SDS011;2388;53.582;9.962;2022-08-01T14:56:48;2.23;;;1.50;;
4748;SDS011;2388;53.582;9.962;2022-08-01T14:59:14;6.23;;;1.30;;
4748;SDS011;2388;53.582;9.962;2022-08-01T15:01:39;6.13;;;1.73;;
4748;SDS011;2388;53.582;9.962;2022-08-01T15:04:05;7.23;;;1.30;;
4748;SDS011;2388;53.582;9.962;2022-08-01T15:06:30;3.63;;;1.40;;
4748;SDS011;2388;53.582;9.962;2022-08-01T15:08:56;7.63;;;1.20;;
4748;SDS011;2388;53.582;9.962;2022-08-01T15:11:21;5.93;;;1.80;;
4748;SDS011;2388;53.582;9.962;2022-08-01T15:13:47;4.70;;;1.17;;
4748;SDS011;2388;53.582;9.962;2022-08-01T15:16:32;6.70;;;1.63;;
4748;SDS011;2388;53.582;9.962;2022-08-01T15:18:58;3.87;;;0.90;;
4748;SDS011;2388;53.582;9.962;2022-08-01T15:21:23;3.70;;;1.33;;
4748;SDS011;2388;53.582;9.962;2022-08-01T15:23:48;8.10;;;1.63;;
4748;SDS011;2388;53.582;9.962;2022-08-01T15:26:14;5.00;;;1.40;;
4748;SDS011;2388;53.582;9.962;2022-08-01T15:28:40;3.87;;;1.33;;
4748;SDS011;2388;53.582;9.962;2022-08-01T15:31:05;6.10;;;1.47;;
4748;SDS011;2388;53.582;9.962;2022-08-01T15:33:31;5.87;;;2.33;;
4748;SDS011;2388;53.582;9.962;2022-08-01T15:35:56;18.13;;;9.03;;
4748;SDS011;2388;53.582;9.962;2022-08-01T15:38:22;10.67;;;8.07;;
4748;SDS011;2388;53.582;9.962;2022-08-01T15:40:47;8.17;;;2.83;;
4748;SDS011;2388;53.582;9.962;2022-08-01T15:43:13;9.03;;;2.00;;